Wetterdaten: aktuell Montag, 10.06.2024 16:50
Datum Zeit Temp. I. Temp. A. Feuchte I. Feuchte A. Luftdruck Regen Wind Richtung Richtung Taupunkt Windchill
10.06.2024 16:50 23,4 C 13,6 C 31 % 81 % 1001 hPa 0,0 mm 5,0 km/h (1 Bft) W 270 10,4 C 13,6 C
10.06.2024 15:50 23,6 C 13,6 C 31 % 79 % 1001 hPa 0,0 mm 5,0 km/h (1 Bft) S 180 10,0 C 13,6 C
10.06.2024 14:50 23,7 C 14,3 C 31 % 78 % 1002 hPa 0,0 mm 0,0 km/h (0 Bft) S 180 10,5 C 14,3 C
10.06.2024 13:50 23,4 C 14,7 C 31 % 75 % 1003 hPa 0,0 mm 4,0 km/h (1 Bft) S 180 10,3 C 14,7 C
10.06.2024 12:50 23,4 C 13,6 C 30 % 77 % 1004 hPa 0,0 mm 3,6 km/h (1 Bft) O-SO45 110 9,6 C 13,6 C
10.06.2024 11:50 23,3 C 13,3 C 30 % 77 % 1004 hPa 0,0 mm 6,8 km/h (2 Bft) S-SW45 200 9,4 C 13,3 C
10.06.2024 10:50 23,3 C 13,7 C 30 % 74 % 1005 hPa 0,0 mm 2,5 km/h (1 Bft) S 180 9,2 C 13,7 C
10.06.2024 09:50 23,3 C 13,2 C 30 % 76 % 1005 hPa 0,0 mm 8,3 km/h (2 Bft) S-SW45 200 9,1 C 13,2 C
10.06.2024 08:50 23,1 C 12,3 C 29 % 75 % 1005 hPa 0,0 mm 0,0 km/h (0 Bft) S-SW45 200 8,0 C 12,3 C
10.06.2024 07:50 22,9 C 12,3 C 29 % 71 % 1004 hPa 0,0 mm 3,6 km/h (1 Bft) S 180 7,2 C 12,3 C
10.06.2024 06:50 22,9 C 11,4 C 28 % 72 % 1005 hPa 0,0 mm 0,0 km/h (0 Bft) S 180 6,5 C 11,4 C
10.06.2024 05:50 22,9 C 11,0 C 27 % 72 % 1005 hPa 0,0 mm 0,0 km/h (0 Bft) S 180 6,2 C 11,0 C
10.06.2024 04:50 23,0 C 10,9 C 26 % 71 % 1006 hPa 0,0 mm 0,0 km/h (0 Bft) S-SW45 200 5,9 C 10,9 C
10.06.2024 03:50 23,0 C 11,1 C 26 % 70 % 1006 hPa 0,0 mm 0,0 km/h (0 Bft) S-SW45 200 5,8 C 11,1 C
10.06.2024 02:50 23,0 C 11,6 C 26 % 67 % 1007 hPa 0,0 mm 0,0 km/h (0 Bft) S-SW45 200 5,7 C 11,6 C
10.06.2024 01:50 23,0 C 11,3 C 26 % 67 % 1007 hPa 0,0 mm 0,0 km/h (0 Bft) S-SW45 200 5,4 C 11,3 C
10.06.2024 00:50 23,1 C 11,9 C 26 % 64 % 1007 hPa 0,0 mm 0,0 km/h (0 Bft) S-SW45 200 5,3 C 11,9 C
09.06.2024 23:50 23,2 C 13,2 C 25 % 59 % 1007 hPa 0,0 mm 0,0 km/h (0 Bft) W 270 5,4 C 13,2 C
09.06.2024 22:50 23,3 C 14,1 C 24 % 55 % 1007 hPa 0,0 mm 0,0 km/h (0 Bft) W-NW45 290 5,2 C 14,1 C
09.06.2024 21:50 23,4 C 15,1 C 23 % 50 % 1007 hPa 0,0 mm 0,0 km/h (0 Bft) W-NW45 290 4,8 C 15,1 C
09.06.2024 20:50 23,5 C 17,9 C 20 % 43 % 1007 hPa 0,0 mm 0,0 km/h (0 Bft) NW 315 5,1 C 17,9 C
09.06.2024 19:50 23,3 C 18,5 C 19 % 43 % 1006 hPa 0,0 mm 4,7 km/h (1 Bft) W-NW45 290 5,7 C 18,5 C
09.06.2024 18:50 23,4 C 19,6 C 19 % 39 % 1006 hPa 0,0 mm 3,6 km/h (1 Bft) N-NW45 335 5,3 C 19,6 C
09.06.2024 17:50 23,5 C 19,8 C 19 % 38 % 1006 hPa 0,0 mm 5,4 km/h (1 Bft) W 270 5,1 C 19,8 C
_ Min-Zeit 05:50 04:50 17:50 17:50 15:50 - 20:50 - - 21:50 04:50
Minimum _ 22,9 C 10,9 C 19 % 38 % 1001 hPa - 0,0 km/h (0 Bft) - - 4,8 C 10,9 C
_ Max-Zeit 14:50 17:50 13:50 16:50 20:50 17:50 09:50 - - 14:50 17:50
Maximum _ 23,7 C 19,8 C 31 % 81 % 1007 hPa 0,0 mm 8,3 km/h
S-SW (2 Bft)
- - 10,5 C 19,8 C
Durchschnitt _ 23,3 C 14,1 C 26 % 64 % 1005 hPa #0,0 mm 2,3 km/h (1 Bft) S-SW - 7,0 C 14,1 C